Time;durP1;ratioP1;P1;durP2;ratioP2;P2;SDS_P1;SDS_P2;PMS_P1;PMS_P2;Temp;Humidity;BMP_temperature;BMP_pressure;BME280_temperature;BME280_humidity;BME280_pressure;Samples;Min_cycle;Max_cycle;Signal;HPM_P1;HPM_P2
2023/06/17 00:02:08;;;;;;;7.10;4.45;;;;;;;;;;4998489;28;20081;-49
2023/06/17 00:04:33;;;;;;;6.55;4.30;;;;;;;;;;5005139;28;20498;-54
2023/06/17 00:06:59;;;;;;;10.27;4.22;;;;;;;;;;5010329;28;20616;-53
2023/06/17 00:09:25;;;;;;;6.28;4.47;;;;;;;;;;5007649;28;20502;-53
2023/06/17 00:11:51;;;;;;;6.60;4.50;;;;;;;;;;5012941;28;20384;-53
2023/06/17 00:14:17;;;;;;;6.25;4.43;;;;;;;;;;5008662;28;20038;-55
2023/06/17 00:16:43;;;;;;;6.32;4.00;;;;;;;;;;5000522;28;20030;-55
2023/06/17 00:19:15;;;;;;;5.22;4.10;;;;;;;;;;4995547;28;20070;-53
2023/06/17 00:21:49;;;;;;;9.65;4.47;;;;;;;;;;4999092;28;20045;-57
2023/06/17 00:24:15;;;;;;;6.97;4.35;;;;;;;;;;5013676;28;20038;-54
2023/06/17 00:26:41;;;;;;;7.15;4.38;;;;;;;;;;5031491;28;20059;-56
2023/06/17 00:29:06;;;;;;;7.03;4.40;;;;;;;;;;5029929;28;20037;-52
2023/06/17 00:31:32;;;;;;;6.05;4.20;;;;;;;;;;5033195;28;20036;-52
2023/06/17 00:33:58;;;;;;;6.53;4.57;;;;;;;;;;5006786;28;20041;-55
2023/06/17 00:36:23;;;;;;;5.75;4.10;;;;;;;;;;4999931;28;20029;-55
2023/06/17 00:38:48;;;;;;;6.68;4.63;;;;;;;;;;5011311;28;20083;-56
2023/06/17 00:41:14;;;;;;;8.88;4.43;;;;;;;;;;5010549;28;20050;-55
2023/06/17 00:43:39;;;;;;;5.50;4.13;;;;;;;;;;5009252;28;20509;-58
2023/06/17 00:46:06;;;;;;;6.45;4.40;;;;;;;;;;4998821;28;20037;-56
2023/06/17 00:48:32;;;;;;;8.85;4.40;;;;;;;;;;5006011;28;20235;-56
2023/06/17 00:51:01;;;;;;;7.22;4.50;;;;;;;;;;4992661;28;20030;-52
2023/06/17 00:53:29;;;;;;;6.57;4.55;;;;;;;;;;5009450;28;20030;-55
2023/06/17 00:55:54;;;;;;;5.93;4.10;;;;;;;;;;5011183;28;20375;-55
2023/06/17 00:58:20;;;;;;;7.60;4.57;;;;;;;;;;5008971;28;20412;-58
2023/06/17 01:00:46;;;;;;;8.52;5.00;;;;;;;;;;4998057;28;20159;-54
2023/06/17 01:03:11;;;;;;;6.55;4.63;;;;;;;;;;5010259;28;20490;-56
2023/06/17 01:05:38;;;;;;;8.68;4.60;;;;;;;;;;4994025;28;20034;-56
2023/06/17 01:08:28;;;;;;;7.05;4.78;;;;;;;;;;4992633;28;20510;-56
2023/06/17 01:11:04;;;;;;;6.78;4.70;;;;;;;;;;4995156;28;21788;-56
2023/06/17 01:13:31;;;;;;;6.80;4.90;;;;;;;;;;5018736;28;20041;-54
2023/06/17 01:15:57;;;;;;;6.70;4.82;;;;;;;;;;5009936;28;20045;-56
2023/06/17 01:18:24;;;;;;;8.52;4.70;;;;;;;;;;4996578;28;20041;-55
2023/06/17 01:20:53;;;;;;;7.65;4.57;;;;;;;;;;5010495;28;20216;-55
2023/06/17 01:23:23;;;;;;;6.30;4.57;;;;;;;;;;5000242;28;20041;-55
2023/06/17 01:25:49;;;;;;;6.90;4.83;;;;;;;;;;5031274;28;20042;-54
2023/06/17 01:28:17;;;;;;;5.07;4.22;;;;;;;;;;5012959;28;20030;-56
2023/06/17 01:30:47;;;;;;;9.88;5.20;;;;;;;;;;5006854;28;20222;-56
2023/06/17 01:33:14;;;;;;;9.07;4.72;;;;;;;;;;5006034;28;20038;-54
2023/06/17 01:36:03;;;;;;;6.72;4.97;;;;;;;;;;5004116;28;20411;-54
2023/06/17 01:38:42;;;;;;;6.93;4.68;;;;;;;;;;5031294;28;20042;-55
2023/06/17 01:41:38;;;;;;;8.20;4.78;;;;;;;;;;4999933;28;20046;-55
2023/06/17 01:44:04;;;;;;;6.60;4.80;;;;;;;;;;5010664;28;20474;-53
2023/06/17 01:46:30;;;;;;;6.63;4.80;;;;;;;;;;4998079;28;20108;-56
2023/06/17 01:48:57;;;;;;;7.20;4.90;;;;;;;;;;5008529;28;20077;-54
2023/06/17 01:51:22;;;;;;;8.00;4.85;;;;;;;;;;5011013;28;20068;-54
2023/06/17 01:53:48;;;;;;;6.53;4.70;;;;;;;;;;4995774;28;20076;-55
2023/06/17 01:56:14;;;;;;;6.55;4.43;;;;;;;;;;4997376;28;20541;-49
2023/06/17 01:58:39;;;;;;;6.60;4.47;;;;;;;;;;5012367;28;20033;-53
2023/06/17 02:01:05;;;;;;;7.00;4.30;;;;;;;;;;5013622;28;20640;-56
2023/06/17 02:03:31;;;;;;;7.85;4.80;;;;;;;;;;5000802;28;20038;-55
2023/06/17 02:05:56;;;;;;;5.70;4.32;;;;;;;;;;5003273;28;20379;-56
2023/06/17 02:08:23;;;;;;;7.05;4.60;;;;;;;;;;5006483;28;20030;-55
2023/06/17 02:10:48;;;;;;;7.18;4.53;;;;;;;;;;4998254;28;20045;-57
2023/06/17 02:13:13;;;;;;;7.43;4.80;;;;;;;;;;5016587;28;20064;-54
2023/06/17 02:15:42;;;;;;;6.20;4.50;;;;;;;;;;5004430;28;20053;-53
2023/06/17 02:18:08;;;;;;;6.30;4.35;;;;;;;;;;4990856;28;20034;-55
2023/06/17 02:20:33;;;;;;;6.78;4.55;;;;;;;;;;4992169;28;20030;-54
2023/06/17 02:22:59;;;;;;;6.63;4.80;;;;;;;;;;5003380;28;20537;-56
2023/06/17 02:25:24;;;;;;;7.82;4.57;;;;;;;;;;5019636;28;20116;-54
2023/06/17 02:27:50;;;;;;;7.07;5.00;;;;;;;;;;5034854;28;20083;-55
2023/06/17 02:30:15;;;;;;;6.90;4.60;;;;;;;;;;5001491;28;20088;-57
2023/06/17 02:32:41;;;;;;;7.65;4.88;;;;;;;;;;5000424;28;20485;-54
2023/06/17 02:35:07;;;;;;;7.82;4.97;;;;;;;;;;5022491;28;20552;-53
2023/06/17 02:37:33;;;;;;;7.40;4.85;;;;;;;;;;5024184;28;20038;-54
2023/06/17 02:39:58;;;;;;;7.90;5.18;;;;;;;;;;5009034;28;20101;-50
2023/06/17 02:42:23;;;;;;;9.40;5.15;;;;;;;;;;4999624;28;20470;-55
2023/06/17 02:44:49;;;;;;;8.45;5.10;;;;;;;;;;5007464;28;20475;-56
2023/06/17 02:47:14;;;;;;;7.63;5.38;;;;;;;;;;5005300;28;20116;-53
2023/06/17 02:49:40;;;;;;;8.52;5.18;;;;;;;;;;5009521;28;20056;-52
2023/06/17 02:52:06;;;;;;;9.73;6.00;;;;;;;;;;5006143;28;20080;-55
2023/06/17 02:54:31;;;;;;;10.52;5.82;;;;;;;;;;5024357;28;20086;-56
2023/06/17 02:56:56;;;;;;;8.35;6.00;;;;;;;;;;5014548;28;20406;-54
2023/06/17 02:59:22;;;;;;;7.95;5.57;;;;;;;;;;5015184;28;20030;-56
2023/06/17 03:01:48;;;;;;;9.15;5.90;;;;;;;;;;5002626;28;20034;-56
2023/06/17 03:04:14;;;;;;;8.48;5.93;;;;;;;;;;4994657;28;20073;-54
2023/06/17 03:06:44;;;;;;;12.88;7.15;;;;;;;;;;5001207;28;20394;-56
2023/06/17 03:09:10;;;;;;;9.27;6.00;;;;;;;;;;4993648;28;20517;-54
2023/06/17 03:11:36;;;;;;;11.60;6.43;;;;;;;;;;4994637;28;20046;-53
2023/06/17 03:14:02;;;;;;;8.95;6.35;;;;;;;;;;4993921;28;20049;-55
2023/06/17 03:16:30;;;;;;;8.55;6.45;;;;;;;;;;4997633;28;20038;-53
2023/06/17 03:18:58;;;;;;;8.13;6.00;;;;;;;;;;5011106;28;20041;-54
2023/06/17 03:21:24;;;;;;;8.88;6.50;;;;;;;;;;5012945;28;20037;-55
2023/06/17 03:23:50;;;;;;;11.38;6.32;;;;;;;;;;4996355;28;20144;-56
2023/06/17 03:26:16;;;;;;;10.25;6.38;;;;;;;;;;4995006;28;20471;-50
2023/06/17 03:28:42;;;;;;;10.38;6.18;;;;;;;;;;5006570;28;20022;-54
2023/06/17 03:31:07;;;;;;;9.93;6.22;;;;;;;;;;4994176;28;20137;-55
2023/06/17 03:33:33;;;;;;;10.07;6.35;;;;;;;;;;4994265;28;20161;-55
2023/06/17 03:35:58;;;;;;;10.52;6.40;;;;;;;;;;4993797;28;20383;-53
2023/06/17 03:38:23;;;;;;;8.77;6.05;;;;;;;;;;4996765;28;20034;-52
2023/06/17 03:40:49;;;;;;;10.45;6.13;;;;;;;;;;5021333;28;20452;-58
2023/06/17 03:43:15;;;;;;;8.65;6.43;;;;;;;;;;5011978;28;20038;-56
2023/06/17 03:45:40;;;;;;;8.63;5.82;;;;;;;;;;5012085;28;20022;-56
2023/06/17 03:48:07;;;;;;;11.68;5.40;;;;;;;;;;5009390;28;20077;-53
2023/06/17 03:50:32;;;;;;;8.65;5.97;;;;;;;;;;5019207;28;20114;-55
2023/06/17 03:52:58;;;;;;;9.32;5.60;;;;;;;;;;5020337;28;20478;-53
2023/06/17 03:55:24;;;;;;;9.35;5.60;;;;;;;;;;5001961;28;20038;-55
2023/06/17 03:57:50;;;;;;;8.18;5.60;;;;;;;;;;5010895;28;20109;-56
2023/06/17 04:00:16;;;;;;;7.65;5.82;;;;;;;;;;5009608;28;20114;-54
2023/06/17 04:02:47;;;;;;;9.80;6.10;;;;;;;;;;5009280;28;20031;-54
2023/06/17 04:05:13;;;;;;;9.57;5.85;;;;;;;;;;4993965;28;20100;-54
2023/06/17 04:07:39;;;;;;;8.85;5.85;;;;;;;;;;5004423;28;20133;-56
2023/06/17 04:10:07;;;;;;;8.73;5.95;;;;;;;;;;4996757;28;20034;-55
2023/06/17 04:12:35;;;;;;;10.77;6.15;;;;;;;;;;5002038;28;20394;-49
2023/06/17 04:15:00;;;;;;;9.30;6.18;;;;;;;;;;5000709;28;20121;-56
2023/06/17 04:17:26;;;;;;;10.77;6.88;;;;;;;;;;5016146;28;20122;-56
2023/06/17 04:19:54;;;;;;;16.98;6.80;;;;;;;;;;5000740;28;20053;-56
2023/06/17 04:22:20;;;;;;;12.10;6.75;;;;;;;;;;5011208;28;20116;-55
2023/06/17 04:24:45;;;;;;;10.35;7.00;;;;;;;;;;5011752;28;20125;-55
2023/06/17 04:27:11;;;;;;;11.43;7.30;;;;;;;;;;5021405;28;20034;-55
2023/06/17 04:29:37;;;;;;;9.95;6.63;;;;;;;;;;5019276;28;20038;-56
2023/06/17 04:32:03;;;;;;;10.75;6.95;;;;;;;;;;5005493;28;20026;-54
2023/06/17 04:34:29;;;;;;;11.07;7.15;;;;;;;;;;4993835;28;20475;-55
2023/06/17 04:36:57;;;;;;;9.63;7.20;;;;;;;;;;4994893;28;20034;-57
2023/06/17 04:39:25;;;;;;;12.20;7.70;;;;;;;;;;5020817;28;20033;-57
2023/06/17 04:41:50;;;;;;;12.35;7.60;;;;;;;;;;5011208;28;20053;-56
2023/06/17 04:44:16;;;;;;;10.98;7.63;;;;;;;;;;4994373;28;20038;-57
2023/06/17 04:46:41;;;;;;;10.65;7.75;;;;;;;;;;4993206;28;20076;-56
2023/06/17 04:49:07;;;;;;;10.70;7.88;;;;;;;;;;4990833;28;20030;-56
2023/06/17 04:51:37;;;;;;;10.38;7.82;;;;;;;;;;4994453;28;20034;-56
2023/06/17 04:54:05;;;;;;;13.52;7.43;;;;;;;;;;4998316;28;20038;-54
2023/06/17 04:56:30;;;;;;;10.88;7.70;;;;;;;;;;5011440;28;20467;-56
2023/06/17 04:58:56;;;;;;;11.45;7.68;;;;;;;;;;5009923;28;20037;-58
2023/06/17 05:01:21;;;;;;;10.38;7.55;;;;;;;;;;5000669;28;20030;-55
2023/06/17 05:03:47;;;;;;;10.63;7.70;;;;;;;;;;4999470;28;20093;-52
2023/06/17 05:06:12;;;;;;;13.07;7.90;;;;;;;;;;5002853;28;20058;-53
2023/06/17 05:08:37;;;;;;;10.38;7.93;;;;;;;;;;4998684;28;20038;-54
2023/06/17 05:11:03;;;;;;;11.52;8.15;;;;;;;;;;5006701;28;20045;-55
2023/06/17 05:13:28;;;;;;;11.15;8.25;;;;;;;;;;5012744;28;20351;-55
2023/06/17 05:15:53;;;;;;;10.48;8.27;;;;;;;;;;5012921;28;20489;-56
2023/06/17 05:18:19;;;;;;;12.35;8.65;;;;;;;;;;5011314;28;20036;-55
2023/06/17 05:20:44;;;;;;;12.35;8.30;;;;;;;;;;5027847;28;20116;-54
2023/06/17 05:23:10;;;;;;;12.18;8.63;;;;;;;;;;5010659;28;20041;-52
2023/06/17 05:25:35;;;;;;;12.13;8.77;;;;;;;;;;5011853;28;20540;-54
2023/06/17 05:28:00;;;;;;;10.85;8.32;;;;;;;;;;5011627;28;20045;-55
2023/06/17 05:30:26;;;;;;;13.05;9.00;;;;;;;;;;5014795;28;20460;-56
2023/06/17 05:32:51;;;;;;;14.82;8.38;;;;;;;;;;5018022;28;20088;-57
2023/06/17 05:35:17;;;;;;;13.82;8.75;;;;;;;;;;5004039;28;20230;-55
2023/06/17 05:37:42;;;;;;;13.45;8.93;;;;;;;;;;4991958;28;20172;-55
2023/06/17 05:40:08;;;;;;;12.82;8.48;;;;;;;;;;5021124;28;20037;-56
2023/06/17 05:42:33;;;;;;;13.13;8.98;;;;;;;;;;5012426;28;20120;-55
2023/06/17 05:44:59;;;;;;;14.73;8.85;;;;;;;;;;5011729;28;20060;-58
2023/06/17 05:47:24;;;;;;;12.57;8.55;;;;;;;;;;5009868;28;20034;-51
2023/06/17 05:49:50;;;;;;;14.73;8.45;;;;;;;;;;4992675;28;20400;-52
2023/06/17 05:52:15;;;;;;;11.82;9.25;;;;;;;;;;4995706;28;20097;-57
2023/06/17 05:54:40;;;;;;;12.43;8.88;;;;;;;;;;5031678;28;20037;-54
2023/06/17 05:57:06;;;;;;;11.73;8.65;;;;;;;;;;4993385;28;20033;-54
2023/06/17 05:59:31;;;;;;;11.90;8.60;;;;;;;;;;4993146;28;20030;-56
2023/06/17 06:01:56;;;;;;;10.43;8.27;;;;;;;;;;5015673;28;20108;-56
2023/06/17 06:04:22;;;;;;;12.57;7.85;;;;;;;;;;5024955;28;20545;-57
2023/06/17 06:06:47;;;;;;;13.38;8.52;;;;;;;;;;5031345;28;20108;-55
2023/06/17 06:09:13;;;;;;;15.60;8.93;;;;;;;;;;5028612;28;20601;-57
2023/06/17 06:11:38;;;;;;;12.18;8.27;;;;;;;;;;5021497;28;20374;-56
2023/06/17 06:14:03;;;;;;;10.70;7.88;;;;;;;;;;4992464;28;20038;-55
2023/06/17 06:16:29;;;;;;;11.93;7.80;;;;;;;;;;5004396;28;20022;-55
2023/06/17 06:18:54;;;;;;;9.82;7.68;;;;;;;;;;5011888;28;20038;-53
2023/06/17 06:21:20;;;;;;;10.90;7.95;;;;;;;;;;5009382;28;20678;-57
2023/06/17 06:23:45;;;;;;;10.63;7.88;;;;;;;;;;5011701;28;20373;-56
2023/06/17 06:26:11;;;;;;;10.93;7.70;;;;;;;;;;5024564;28;20037;-52
2023/06/17 06:28:36;;;;;;;11.13;7.55;;;;;;;;;;5031642;28;20086;-55
2023/06/17 06:31:03;;;;;;;18.98;6.97;;;;;;;;;;4993522;28;20113;-57
2023/06/17 06:33:28;;;;;;;10.38;7.63;;;;;;;;;;5015048;28;20053;-56
2023/06/17 06:35:54;;;;;;;13.52;7.60;;;;;;;;;;5010883;28;20065;-55
2023/06/17 06:38:19;;;;;;;11.65;7.20;;;;;;;;;;5012057;28;20090;-56
2023/06/17 06:40:45;;;;;;;9.63;6.65;;;;;;;;;;5031482;28;20049;-54
2023/06/17 06:43:10;;;;;;;10.23;6.82;;;;;;;;;;5030406;28;20386;-56
2023/06/17 06:45:36;;;;;;;8.57;6.78;;;;;;;;;;5027263;28;20034;-57
2023/06/17 06:48:01;;;;;;;11.75;6.75;;;;;;;;;;5014158;28;20120;-58
2023/06/17 06:50:26;;;;;;;8.52;6.35;;;;;;;;;;5010115;28;20482;-55
2023/06/17 06:52:52;;;;;;;9.77;5.85;;;;;;;;;;5011314;28;20038;-55
2023/06/17 06:55:18;;;;;;;9.77;6.90;;;;;;;;;;5009229;28;20069;-55
2023/06/17 06:57:43;;;;;;;9.38;6.72;;;;;;;;;;5012542;28;20029;-56
2023/06/17 07:00:09;;;;;;;8.35;6.53;;;;;;;;;;5011211;28;20093;-56
2023/06/17 07:02:35;;;;;;;9.60;6.70;;;;;;;;;;5030890;28;20381;-55
2023/06/17 07:05:03;;;;;;;13.48;6.35;;;;;;;;;;4997824;28;20033;-57
2023/06/17 07:07:29;;;;;;;7.68;5.50;;;;;;;;;;5007685;28;20092;-57
2023/06/17 07:09:55;;;;;;;10.65;4.63;;;;;;;;;;5008845;28;20421;-57
2023/06/17 07:12:20;;;;;;;11.40;6.03;;;;;;;;;;5011827;28;20568;-51
2023/06/17 07:14:45;;;;;;;10.48;5.18;;;;;;;;;;5003698;28;20561;-57
2023/06/17 07:17:11;;;;;;;9.75;4.88;;;;;;;;;;5025245;28;20120;-53
2023/06/17 07:19:36;;;;;;;9.55;5.20;;;;;;;;;;5033145;28;20029;-56
2023/06/17 07:22:01;;;;;;;11.82;5.25;;;;;;;;;;4997967;28;20480;-58
2023/06/17 07:24:27;;;;;;;7.93;5.35;;;;;;;;;;4999713;28;20029;-56
2023/06/17 07:26:52;;;;;;;6.38;5.05;;;;;;;;;;5019177;28;20308;-56
2023/06/17 07:29:17;;;;;;;7.97;5.00;;;;;;;;;;5032760;28;20025;-53
2023/06/17 07:31:43;;;;;;;6.22;4.88;;;;;;;;;;5019367;28;20100;-55
2023/06/17 07:34:08;;;;;;;9.15;5.13;;;;;;;;;;4993845;28;20041;-57
2023/06/17 07:36:34;;;;;;;7.47;5.05;;;;;;;;;;4995500;28;20034;-55
2023/06/17 07:39:00;;;;;;;8.00;5.40;;;;;;;;;;4997908;28;20379;-55
2023/06/17 07:41:26;;;;;;;9.55;5.20;;;;;;;;;;5004045;28;20235;-54
2023/06/17 07:43:51;;;;;;;7.65;4.93;;;;;;;;;;4994915;28;20038;-55
2023/06/17 07:46:17;;;;;;;7.47;4.78;;;;;;;;;;4994022;28;20113;-57
2023/06/17 07:48:42;;;;;;;10.38;5.05;;;;;;;;;;4995023;28;20467;-53
2023/06/17 07:51:08;;;;;;;11.60;5.25;;;;;;;;;;4993942;28;20088;-57
2023/06/17 07:53:33;;;;;;;7.18;4.85;;;;;;;;;;5002170;28;20044;-56
2023/06/17 07:55:59;;;;;;;10.10;5.00;;;;;;;;;;5027707;28;20381;-54
2023/06/17 07:58:24;;;;;;;6.93;4.90;;;;;;;;;;5013232;28;20618;-55
2023/06/17 08:00:50;;;;;;;10.95;5.00;;;;;;;;;;5004890;28;20025;-53
2023/06/17 08:03:15;;;;;;;7.32;4.82;;;;;;;;;;5021772;28;20061;-54
2023/06/17 08:05:40;;;;;;;8.25;4.60;;;;;;;;;;4994048;28;20034;-54
2023/06/17 08:08:06;;;;;;;6.20;4.55;;;;;;;;;;4994120;28;20034;-56
2023/06/17 08:10:31;;;;;;;8.68;4.60;;;;;;;;;;5011195;28;20416;-52
2023/06/17 08:12:56;;;;;;;6.65;4.32;;;;;;;;;;5011881;28;20071;-55
2023/06/17 08:15:22;;;;;;;8.88;4.47;;;;;;;;;;5031712;28;20489;-55
2023/06/17 08:17:52;;;;;;;5.28;4.30;;;;;;;;;;5005322;28;20463;-55
2023/06/17 08:20:18;;;;;;;5.88;4.15;;;;;;;;;;5012181;28;20091;-54
2023/06/17 08:22:44;;;;;;;7.03;4.45;;;;;;;;;;5017047;28;20049;-56
2023/06/17 08:25:10;;;;;;;7.85;4.32;;;;;;;;;;5028537;28;20045;-58
2023/06/17 08:27:37;;;;;;;6.93;4.05;;;;;;;;;;5023531;28;20497;-57
2023/06/17 08:30:03;;;;;;;6.65;4.20;;;;;;;;;;4995587;28;20097;-56
2023/06/17 08:32:30;;;;;;;6.53;3.90;;;;;;;;;;4997001;28;20666;-57
2023/06/17 08:34:55;;;;;;;5.35;3.92;;;;;;;;;;5013233;28;20056;-57
2023/06/17 08:37:20;;;;;;;8.48;4.40;;;;;;;;;;5006669;28;20031;-52
2023/06/17 08:39:46;;;;;;;6.78;4.15;;;;;;;;;;5033020;28;20377;-55
2023/06/17 08:42:11;;;;;;;7.50;4.25;;;;;;;;;;5030522;28;20080;-54
2023/06/17 08:44:41;;;;;;;6.25;4.43;;;;;;;;;;5030669;28;20038;-55
2023/06/17 08:47:06;;;;;;;7.43;4.47;;;;;;;;;;4994721;28;20042;-57
2023/06/17 08:49:33;;;;;;;6.35;4.15;;;;;;;;;;5024599;28;20038;-51
2023/06/17 08:52:00;;;;;;;5.93;4.43;;;;;;;;;;5013258;28;20033;-56
2023/06/17 08:54:31;;;;;;;8.93;4.32;;;;;;;;;;5011538;28;20092;-55
2023/06/17 08:56:57;;;;;;;7.13;4.50;;;;;;;;;;5031486;28;20355;-52
2023/06/17 08:59:22;;;;;;;5.95;4.38;;;;;;;;;;5024394;28;20088;-56
2023/06/17 09:01:49;;;;;;;5.57;4.15;;;;;;;;;;4999336;28;20030;-56
2023/06/17 09:04:14;;;;;;;6.50;4.35;;;;;;;;;;4992575;28;20065;-55
2023/06/17 09:06:40;;;;;;;5.78;4.20;;;;;;;;;;5007549;28;20434;-56
2023/06/17 09:09:05;;;;;;;10.93;4.63;;;;;;;;;;5012774;28;20521;-53
2023/06/17 09:11:32;;;;;;;8.15;4.45;;;;;;;;;;5011844;28;20058;-56
2023/06/17 09:13:59;;;;;;;6.35;4.70;;;;;;;;;;5011750;28;20458;-56
2023/06/17 09:16:25;;;;;;;7.45;4.03;;;;;;;;;;5007866;28;20038;-56
2023/06/17 09:18:58;;;;;;;7.40;4.13;;;;;;;;;;5012174;28;20089;-55
2023/06/17 09:21:25;;;;;;;9.23;4.20;;;;;;;;;;4995329;28;20092;-55
2023/06/17 09:23:58;;;;;;;7.22;4.30;;;;;;;;;;5008685;28;20065;-52
2023/06/17 09:26:31;;;;;;;5.28;3.75;;;;;;;;;;5011787;28;20427;-55
2023/06/17 09:29:07;;;;;;;7.63;4.00;;;;;;;;;;5002495;28;20425;-53
2023/06/17 09:31:46;;;;;;;7.03;4.00;;;;;;;;;;4999707;28;20922;-56
2023/06/17 09:34:11;;;;;;;6.47;4.13;;;;;;;;;;5011370;28;20029;-57
2023/06/17 09:36:39;;;;;;;9.60;4.32;;;;;;;;;;5007998;28;20080;-58
2023/06/17 09:39:12;;;;;;;8.15;4.10;;;;;;;;;;5012448;28;20034;-58
2023/06/17 09:41:42;;;;;;;6.95;4.10;;;;;;;;;;5012168;28;20124;-57
2023/06/17 09:44:08;;;;;;;;;;;;;;;;;;5012582;28;20106;-58
2023/06/17 09:46:46;;;;;;;8.20;4.20;;;;;;;;;;5011291;28;20429;-58
2023/06/17 09:49:15;;;;;;;6.45;4.00;;;;;;;;;;5011997;28;20038;-58
2023/06/17 09:51:41;;;;;;;5.63;4.13;;;;;;;;;;5009009;28;20121;-58
2023/06/17 09:54:08;;;;;;;4.80;3.80;;;;;;;;;;5003014;28;20048;-58
2023/06/17 09:56:34;;;;;;;5.53;3.70;;;;;;;;;;5010093;28;20089;-59
2023/06/17 09:59:01;;;;;;;5.03;4.00;;;;;;;;;;5012167;28;20451;-57
2023/06/17 10:01:30;;;;;;;9.02;3.75;;;;;;;;;;5011438;28;20482;-58
2023/06/17 10:03:59;;;;;;;5.07;3.80;;;;;;;;;;5007634;28;20528;-57
2023/06/17 10:06:28;;;;;;;6.30;3.78;;;;;;;;;;5010826;28;20425;-58
2023/06/17 10:08:55;;;;;;;5.43;3.70;;;;;;;;;;5012124;28;20064;-58
2023/06/17 10:11:22;;;;;;;6.00;3.70;;;;;;;;;;4997826;28;20375;-58
2023/06/17 10:14:00;;;;;;;6.65;3.83;;;;;;;;;;4999562;28;20103;-58
2023/06/17 10:16:28;;;;;;;6.68;3.90;;;;;;;;;;5011100;28;20156;-58
2023/06/17 10:18:56;;;;;;;5.20;3.53;;;;;;;;;;5003912;28;20095;-57
2023/06/17 10:21:25;;;;;;;6.07;3.70;;;;;;;;;;5009086;28;20549;-58
2023/06/17 10:23:53;;;;;;;5.13;3.67;;;;;;;;;;5009413;28;20041;-58
2023/06/17 10:26:19;;;;;;;7.32;3.90;;;;;;;;;;5025576;28;20033;-58
2023/06/17 10:28:58;;;;;;;7.72;3.80;;;;;;;;;;5006425;28;20076;-57
2023/06/17 10:31:25;;;;;;;5.65;3.78;;;;;;;;;;5015779;28;20038;-58
2023/06/17 10:33:55;;;;;;;4.85;3.47;;;;;;;;;;5031268;28;20493;-58
2023/06/17 10:36:21;;;;;;;5.68;3.40;;;;;;;;;;5024836;28;20083;-58
2023/06/17 10:38:55;;;;;;;7.00;3.92;;;;;;;;;;5008862;28;20113;-59
2023/06/17 10:41:20;;;;;;;4.85;3.63;;;;;;;;;;5019376;28;20057;-58
2023/06/17 10:43:45;;;;;;;4.95;3.67;;;;;;;;;;5030421;28;20035;-58
2023/06/17 10:46:11;;;;;;;7.82;3.92;;;;;;;;;;4994489;28;20434;-58
2023/06/17 10:48:36;;;;;;;5.78;3.80;;;;;;;;;;5023486;28;20033;-59
2023/06/17 10:51:11;;;;;;;5.28;3.95;;;;;;;;;;5035392;28;20034;-57
2023/06/17 10:53:37;;;;;;;4.90;3.72;;;;;;;;;;5009424;28;20026;-58
2023/06/17 10:56:05;;;;;;;6.45;3.95;;;;;;;;;;5000612;28;20034;-56
2023/06/17 10:58:43;;;;;;;4.97;3.65;;;;;;;;;;5030746;28;20034;-58
2023/06/17 11:01:09;;;;;;;4.95;3.80;;;;;;;;;;5008297;28;20117;-57
2023/06/17 11:03:36;;;;;;;4.82;3.65;;;;;;;;;;5008937;28;20041;-59
2023/06/17 11:06:09;;;;;;;5.38;3.80;;;;;;;;;;5022061;28;20034;-59
2023/06/17 11:08:36;;;;;;;7.22;4.03;;;;;;;;;;5010653;28;20045;-58
2023/06/17 11:11:15;;;;;;;5.68;3.80;;;;;;;;;;5015219;28;20102;-58
2023/06/17 11:13:44;;;;;;;6.05;3.70;;;;;;;;;;5000582;28;20077;-58
2023/06/17 11:16:10;;;;;;;7.32;3.80;;;;;;;;;;4995410;28;20113;-58
2023/06/17 11:18:37;;;;;;;6.32;3.90;;;;;;;;;;4994868;28;20030;-59
2023/06/17 11:21:06;;;;;;;4.72;3.83;;;;;;;;;;4996386;28;20037;-60
2023/06/17 11:23:33;;;;;;;5.75;3.70;;;;;;;;;;5005282;28;20068;-61
2023/06/17 11:26:00;;;;;;;6.07;4.00;;;;;;;;;;5011153;28;20042;-60
2023/06/17 11:28:26;;;;;;;6.15;3.63;;;;;;;;;;5002119;28;20085;-59
2023/06/17 11:30:51;;;;;;;8.05;3.72;;;;;;;;;;5008818;28;20038;-59
2023/06/17 11:33:20;;;;;;;5.93;3.63;;;;;;;;;;4995741;28;20035;-59
2023/06/17 11:35:48;;;;;;;5.43;3.80;;;;;;;;;;4995573;28;20033;-59
2023/06/17 11:38:16;;;;;;;5.22;3.65;;;;;;;;;;4997597;28;20026;-59
2023/06/17 11:40:42;;;;;;;6.22;4.03;;;;;;;;;;5005694;28;20483;-59
2023/06/17 11:43:09;;;;;;;5.53;3.60;;;;;;;;;;5006402;28;20049;-59
2023/06/17 11:45:35;;;;;;;6.22;3.90;;;;;;;;;;5001067;28;20026;-59
2023/06/17 11:48:06;;;;;;;5.63;3.60;;;;;;;;;;5011565;28;20034;-60
2023/06/17 11:50:32;;;;;;;4.50;3.70;;;;;;;;;;4999791;28;20591;-59
2023/06/17 11:52:58;;;;;;;4.93;3.80;;;;;;;;;;5007812;28;20112;-59
2023/06/17 11:55:33;;;;;;;4.75;3.65;;;;;;;;;;5005084;28;20156;-60
2023/06/17 11:58:04;;;;;;;4.22;3.72;;;;;;;;;;4997587;28;20104;-59
2023/06/17 12:00:30;;;;;;;4.15;3.50;;;;;;;;;;5007134;28;20034;-59
2023/06/17 12:02:59;;;;;;;4.53;3.50;;;;;;;;;;5000312;28;20089;-60
2023/06/17 12:05:28;;;;;;;4.60;3.60;;;;;;;;;;5004072;28;20049;-59
2023/06/17 12:07:58;;;;;;;7.87;3.60;;;;;;;;;;5017371;28;20037;-59
2023/06/17 12:10:25;;;;;;;5.45;3.58;;;;;;;;;;4992501;28;20077;-59
2023/06/17 12:12:55;;;;;;;7.10;3.80;;;;;;;;;;5003722;28;20108;-59
2023/06/17 12:15:26;;;;;;;6.38;3.72;;;;;;;;;;5007550;28;20057;-59
2023/06/17 12:17:52;;;;;;;5.40;3.55;;;;;;;;;;4998744;28;20044;-59
2023/06/17 12:20:19;;;;;;;4.78;3.38;;;;;;;;;;4996458;28;20037;-59
2023/06/17 12:22:47;;;;;;;4.35;3.38;;;;;;;;;;5002866;28;20113;-59
2023/06/17 12:25:12;;;;;;;5.85;3.63;;;;;;;;;;5008686;28;20034;-59
2023/06/17 12:27:39;;;;;;;4.63;3.60;;;;;;;;;;5009506;28;20041;-59
2023/06/17 12:30:06;;;;;;;5.20;3.63;;;;;;;;;;5003064;28;20088;-59
2023/06/17 12:32:31;;;;;;;6.22;3.58;;;;;;;;;;5012039;28;20105;-59
2023/06/17 12:34:58;;;;;;;4.53;3.60;;;;;;;;;;5003587;28;20109;-59
2023/06/17 12:37:28;;;;;;;7.15;3.80;;;;;;;;;;4995318;28;20081;-59
2023/06/17 12:39:57;;;;;;;6.20;3.60;;;;;;;;;;5013165;28;20060;-58
2023/06/17 12:42:23;;;;;;;4.95;3.83;;;;;;;;;;5013000;28;20104;-59
2023/06/17 12:44:50;;;;;;;5.55;3.65;;;;;;;;;;5007844;28;20125;-59
2023/06/17 12:47:18;;;;;;;5.45;3.70;;;;;;;;;;5013031;28;20048;-59
2023/06/17 12:49:43;;;;;;;5.72;3.63;;;;;;;;;;5008600;28;20092;-59
2023/06/17 12:52:09;;;;;;;4.85;3.70;;;;;;;;;;5013332;28;20054;-60
2023/06/17 12:54:35;;;;;;;4.90;3.53;;;;;;;;;;5012273;28;20033;-59
2023/06/17 12:57:01;;;;;;;5.75;3.80;;;;;;;;;;5011840;28;20041;-59
2023/06/17 12:59:26;;;;;;;4.40;3.70;;;;;;;;;;5009995;28;20042;-59
2023/06/17 13:01:51;;;;;;;4.93;3.80;;;;;;;;;;4994978;28;20039;-59
2023/06/17 13:04:17;;;;;;;4.93;3.70;;;;;;;;;;5013993;28;20116;-59
2023/06/17 13:06:44;;;;;;;6.20;3.60;;;;;;;;;;5031962;28;20109;-59
2023/06/17 13:09:09;;;;;;;5.70;4.13;;;;;;;;;;5032097;28;20083;-59
2023/06/17 13:11:36;;;;;;;4.75;3.92;;;;;;;;;;5022969;28;20034;-59
2023/06/17 13:14:03;;;;;;;4.97;3.58;;;;;;;;;;5012684;28;20026;-59
2023/06/17 13:16:29;;;;;;;4.50;3.65;;;;;;;;;;5011512;28;20030;-59
2023/06/17 13:18:56;;;;;;;4.32;3.80;;;;;;;;;;4992567;28;20066;-59
2023/06/17 13:21:22;;;;;;;5.50;3.85;;;;;;;;;;5003791;28;20038;-59
2023/06/17 13:23:48;;;;;;;5.10;3.65;;;;;;;;;;5008027;28;20088;-60
2023/06/17 13:26:13;;;;;;;8.32;4.00;;;;;;;;;;5012705;28;20022;-59
2023/06/17 13:28:39;;;;;;;6.65;4.22;;;;;;;;;;5011719;28;20033;-59
2023/06/17 13:31:04;;;;;;;5.25;3.97;;;;;;;;;;5012125;28;20486;-59
2023/06/17 13:33:30;;;;;;;5.65;3.55;;;;;;;;;;5008023;28;20080;-59
2023/06/17 13:35:56;;;;;;;4.97;3.90;;;;;;;;;;5010502;28;20455;-59
2023/06/17 13:38:21;;;;;;;5.15;3.83;;;;;;;;;;5007602;28;20360;-60
2023/06/17 13:40:47;;;;;;;5.68;4.05;;;;;;;;;;4991968;28;20463;-60
2023/06/17 13:43:12;;;;;;;6.20;4.00;;;;;;;;;;4993220;28;20022;-60
2023/06/17 13:45:38;;;;;;;7.65;4.15;;;;;;;;;;5009981;28;20033;-60
2023/06/17 13:48:04;;;;;;;6.30;4.30;;;;;;;;;;5012004;28;20525;-60
2023/06/17 13:50:30;;;;;;;5.30;4.07;;;;;;;;;;5011462;28;20088;-60
2023/06/17 13:52:58;;;;;;;5.50;4.40;;;;;;;;;;4994419;28;20042;-60
2023/06/17 13:55:24;;;;;;;5.20;4.00;;;;;;;;;;5004814;28;20030;-59
2023/06/17 13:57:50;;;;;;;6.03;3.85;;;;;;;;;;4998518;28;20075;-59
2023/06/17 14:00:16;;;;;;;4.30;3.80;;;;;;;;;;5030967;28;20033;-59
2023/06/17 14:02:42;;;;;;;6.30;3.88;;;;;;;;;;5001077;28;20033;-59
2023/06/17 14:05:08;;;;;;;7.13;4.13;;;;;;;;;;5022161;28;20042;-59
2023/06/17 14:07:34;;;;;;;7.07;4.30;;;;;;;;;;5024656;28;20497;-59
2023/06/17 14:10:00;;;;;;;6.72;4.25;;;;;;;;;;4995448;28;20034;-60
2023/06/17 14:12:26;;;;;;;7.90;4.20;;;;;;;;;;4991574;28;20054;-58
2023/06/17 14:14:52;;;;;;;8.20;4.10;;;;;;;;;;5004442;28;20069;-60
2023/06/17 14:17:17;;;;;;;5.28;4.05;;;;;;;;;;5010673;28;20108;-61
2023/06/17 14:19:43;;;;;;;7.32;4.20;;;;;;;;;;5009705;28;20073;-60
2023/06/17 14:22:08;;;;;;;5.88;4.35;;;;;;;;;;5009821;28;20382;-60
2023/06/17 14:24:38;;;;;;;6.70;4.70;;;;;;;;;;5010822;28;20030;-60
2023/06/17 14:27:25;;;;;;;4.85;4.22;;;;;;;;;;4993020;28;20034;-60
2023/06/17 14:29:50;;;;;;;9.15;4.47;;;;;;;;;;5005218;28;20092;-60
2023/06/17 14:32:16;;;;;;;8.30;4.40;;;;;;;;;;4999136;28;20030;-60
2023/06/17 14:34:42;;;;;;;5.20;4.15;;;;;;;;;;4991361;28;20419;-60
2023/06/17 14:37:07;;;;;;;5.70;4.18;;;;;;;;;;4992226;28;20065;-60
2023/06/17 14:39:32;;;;;;;5.38;4.28;;;;;;;;;;4991122;28;20085;-58